Time;durP1;ratioP1;P1;durP2;ratioP2;P2;SDS_P1;SDS_P2;PMS_P1;PMS_P2;Temp;Humidity;BMP_temperature;BMP_pressure;BME280_temperature;BME280_humidity;BME280_pressure;Samples;Min_cycle;Max_cycle;Signal;HPM_P1;HPM_P2
2022/05/29 00:01:23;;;;;;;7.57;2.50;;;;;;;8.59;52.87;99926.25;10437335;28;20135;-81
2022/05/29 00:06:25;;;;;;;7.57;2.50;;;;;;;8.56;53.07;99920.34;10436249;28;20041;-81
2022/05/29 00:11:30;;;;;;;6.30;2.42;;;;;;;8.51;53.46;99919.72;10435919;28;20072;-81
2022/05/29 00:16:32;;;;;;;10.75;3.10;;;;;;;8.42;53.36;99899.38;10435004;28;20137;-80
2022/05/29 00:21:37;;;;;;;9.50;2.72;;;;;;;8.46;53.63;99898.28;10435975;28;20053;-81
2022/05/29 00:26:40;;;;;;;8.43;3.00;;;;;;;8.49;53.41;99890.31;10432747;28;21146;-81
2022/05/29 00:31:44;;;;;;;5.63;2.33;;;;;;;8.41;53.77;99888.09;10452026;28;20056;-81
2022/05/29 00:36:48;;;;;;;7.50;2.67;;;;;;;8.28;54.29;99886.22;10450121;28;20106;-81
2022/05/29 00:41:49;;;;;;;6.93;2.42;;;;;;;8.29;54.35;99883.53;10437087;28;20079;-81
2022/05/29 00:47:00;;;;;;;7.25;2.50;;;;;;;8.20;54.97;99881.38;10434834;28;20068;-81
2022/05/29 00:52:07;;;;;;;6.57;2.63;;;;;;;8.11;54.96;99879.25;10436736;28;20052;-81
2022/05/29 00:57:19;;;;;;;8.50;3.22;;;;;;;7.88;55.28;99872.53;10435561;28;20136;-81
2022/05/29 01:02:24;;;;;;;8.15;2.45;;;;;;;7.81;55.51;99865.94;10436415;28;20141;-81
2022/05/29 01:07:26;;;;;;;7.95;2.90;;;;;;;7.83;55.44;99864.09;10434345;28;20089;-80
2022/05/29 01:12:57;;;;;;;6.47;2.67;;;;;;;7.72;56.47;99860.34;10430004;28;20061;-81
2022/05/29 01:18:34;;;;;;;7.55;2.70;;;;;;;7.64;57.41;99860.75;10432918;28;20057;-81
2022/05/29 01:24:01;;;;;;;7.95;2.75;;;;;;;7.71;57.21;99869.09;10433184;28;20518;-81
2022/05/29 01:29:37;;;;;;;8.20;2.50;;;;;;;7.53;56.87;99865.63;10433015;28;20115;-81
2022/05/29 01:34:46;;;;;;;9.27;2.80;;;;;;;7.68;56.16;99871.84;10437209;28;20088;-81
2022/05/29 01:40:09;;;;;;;9.23;3.08;;;;;;;7.67;56.31;99873.59;10443980;28;20079;-81
2022/05/29 01:45:18;;;;;;;10.88;2.90;;;;;;;7.79;56.00;99878.19;10441322;28;20146;-81
2022/05/29 01:50:29;;;;;;;8.70;2.60;;;;;;;7.73;55.95;99878.50;10441820;28;20422;-81
2022/05/29 01:55:40;;;;;;;9.48;2.60;;;;;;;7.79;56.05;99869.56;10457015;28;20049;-81
2022/05/29 02:00:44;;;;;;;;;;;;;;;7.61;56.07;99866.06;10442917;28;20473;-81
2022/05/29 02:05:55;;;;;;;10.13;2.80;;;;;;;7.95;55.25;99866.13;10447277;28;19927;-81
2022/05/29 02:11:17;;;;;;;8.93;2.53;;;;;;;7.98;55.12;99862.50;10445825;28;20103;-81
2022/05/29 02:16:34;;;;;;;10.10;3.00;;;;;;;7.94;55.19;99855.75;10462505;28;20051;-81
2022/05/29 02:21:45;;;;;;;9.85;2.78;;;;;;;7.88;55.26;99854.31;10445533;28;20448;-81
2022/05/29 02:26:54;;;;;;;8.98;2.58;;;;;;;7.83;55.48;99858.09;10441344;28;20080;-81
2022/05/29 02:32:53;;;;;;;7.43;2.70;;;;;;;7.67;56.28;99851.94;10443542;28;20126;-81
2022/05/29 02:38:03;;;;;;;8.90;2.55;;;;;;;7.66;55.68;99845.91;10318416;28;20113;-81
2022/05/29 02:43:16;;;;;;;8.85;2.53;;;;;;;7.57;55.48;99841.13;10425347;28;20079;-81
2022/05/29 02:48:30;;;;;;;9.52;2.75;;;;;;;7.50;55.91;99837.16;10444365;28;21013;-81
2022/05/29 02:53:33;;;;;;;13.95;3.72;;;;;;;7.45;56.14;99836.50;10443063;28;20453;-81
2022/05/29 02:58:41;;;;;;;7.88;2.53;;;;;;;7.36;56.66;99829.19;10445148;28;20099;-81
2022/05/29 03:04:21;;;;;;;8.70;2.70;;;;;;;7.26;56.79;99820.13;10441536;28;20049;-81
2022/05/29 03:09:58;;;;;;;7.22;2.65;;;;;;;7.22;56.99;99829.00;10327445;28;20216;-81
2022/05/29 03:15:30;;;;;;;8.32;3.00;;;;;;;7.12;57.06;99822.53;10439102;28;20111;-80
2022/05/29 03:20:46;;;;;;;6.57;2.80;;;;;;;7.09;57.09;99820.06;10439624;28;20045;-80
2022/05/29 03:25:55;;;;;;;9.88;2.78;;;;;;;7.12;57.04;99822.53;10438822;28;20529;-80
2022/05/29 03:31:04;;;;;;;9.82;2.70;;;;;;;7.10;57.18;99813.97;10438322;28;20053;-81
2022/05/29 03:36:11;;;;;;;10.77;2.90;;;;;;;7.21;56.80;99819.50;10438144;28;20045;-80
2022/05/29 03:41:19;;;;;;;9.32;2.65;;;;;;;7.20;56.78;99815.22;10439756;28;20053;-80
2022/05/29 03:46:21;;;;;;;7.30;2.80;;;;;;;7.20;56.78;99820.41;10437483;28;20193;-81
2022/05/29 03:51:25;;;;;;;7.97;2.60;;;;;;;7.06;57.05;99823.66;10436670;28;20057;-80
2022/05/29 03:56:30;;;;;;;6.82;2.80;;;;;;;7.12;57.15;99819.94;10437226;28;20107;-80
2022/05/29 04:01:35;;;;;;;8.05;2.75;;;;;;;7.24;56.73;99819.38;10436504;28;20495;-80
2022/05/29 04:06:40;;;;;;;10.48;2.90;;;;;;;7.36;56.58;99817.91;10437924;28;20139;-80
2022/05/29 04:17:06;;;;;;;13.30;3.15;;;;;;;10.00;52.64;99808.75;10436375;28;20049;-80
2022/05/29 04:22:19;;;;;;;8.93;3.00;;;;;;;12.81;46.15;99789.34;10434587;28;20053;-81
2022/05/29 04:27:21;;;;;;;7.00;2.53;;;;;;;14.93;41.98;99783.72;10436769;28;20053;-80
2022/05/29 04:37:43;;;;;;;9.43;2.67;;;;;;;18.14;35.88;99775.78;10436702;28;20464;-81
2022/05/29 04:42:45;;;;;;;7.85;2.60;;;;;;;19.01;34.03;99780.59;10435549;28;20530;-81
2022/05/29 04:47:50;;;;;;;9.15;2.63;;;;;;;20.19;31.39;99769.59;10434365;28;20132;-80
2022/05/29 04:52:51;;;;;;;9.90;2.60;;;;;;;20.63;31.09;99769.56;10433457;28;20107;-80
2022/05/29 04:57:55;;;;;;;7.18;2.35;;;;;;;21.79;29.82;99763.19;10432942;28;20053;-81
2022/05/29 05:02:57;;;;;;;8.00;2.80;;;;;;;22.09;28.43;99753.69;10432701;28;20147;-81
2022/05/29 05:08:00;;;;;;;8.82;2.80;;;;;;;22.58;27.99;99752.53;10435405;28;20079;-81
2022/05/29 05:13:02;;;;;;;6.32;2.50;;;;;;;23.52;26.81;99747.06;10439020;28;20498;-81
2022/05/29 05:18:08;;;;;;;7.25;2.20;;;;;;;23.55;26.17;99746.72;10441721;28;20059;-81
2022/05/29 05:23:17;;;;;;;9.07;2.83;;;;;;;23.07;25.55;99737.16;10439997;28;20057;-81
2022/05/29 05:28:20;;;;;;;7.17;1.97;;;;;;;19.99;29.28;99752.22;10442527;28;20179;-81
2022/05/29 05:33:27;;;;;;;8.75;2.40;;;;;;;17.33;32.65;99763.91;10437752;28;20147;-81
2022/05/29 05:38:31;;;;;;;8.80;2.30;;;;;;;15.53;35.88;99764.75;10440967;28;20162;-81
2022/05/29 05:43:51;;;;;;;8.95;2.33;;;;;;;14.36;38.35;99750.47;10438658;28;20060;-80
2022/05/29 05:48:59;;;;;;;7.73;2.30;;;;;;;13.59;40.09;99766.97;10444314;28;20150;-80
2022/05/29 05:54:02;;;;;;;8.30;2.50;;;;;;;13.18;40.87;99753.41;10441280;28;20092;-81
2022/05/29 05:59:07;;;;;;;5.70;2.22;;;;;;;12.98;41.76;99751.38;10442873;28;20053;-81
2022/05/29 06:04:09;;;;;;;7.45;2.30;;;;;;;12.70;42.17;99751.69;10442108;28;20128;-80
2022/05/29 06:09:17;;;;;;;11.65;2.70;;;;;;;12.42;43.73;99763.28;10442007;28;20048;-80
2022/05/29 06:14:20;;;;;;;14.80;2.78;;;;;;;12.61;43.31;99758.44;10437104;28;20056;-80
2022/05/29 06:19:21;;;;;;;6.80;2.00;;;;;;;12.46;43.75;99756.03;10439163;28;20497;-80
2022/05/29 06:24:27;;;;;;;8.25;2.28;;;;;;;12.68;43.48;99753.59;10437929;28;20132;-81
2022/05/29 06:29:30;;;;;;;9.52;2.25;;;;;;;12.98;42.99;99747.91;10439958;28;20394;-80
2022/05/29 06:34:41;;;;;;;7.43;2.20;;;;;;;13.20;42.00;99750.66;10439690;28;20137;-81
2022/05/29 06:39:45;;;;;;;6.68;2.40;;;;;;;13.33;41.92;99746.19;10437822;28;20114;-81
2022/05/29 06:44:53;;;;;;;8.50;2.28;;;;;;;13.35;42.05;99739.84;10438816;28;20186;-83
2022/05/29 06:49:55;;;;;;;7.22;2.20;;;;;;;13.20;42.21;99741.00;10440344;28;20091;-82
2022/05/29 06:54:58;;;;;;;8.32;2.28;;;;;;;13.42;42.04;99733.22;10440310;28;20576;-80
2022/05/29 07:10:39;;;;;;;8.45;2.10;;;;;;;14.33;39.98;99728.84;10436206;28;20171;-80
2022/05/29 07:15:43;;;;;;;9.27;2.22;;;;;;;15.18;38.55;99717.56;10437885;28;20080;-80
2022/05/29 07:20:46;;;;;;;9.75;2.50;;;;;;;15.81;37.73;99706.97;10437992;28;20064;-80
2022/05/29 07:25:48;;;;;;;7.47;2.05;;;;;;;16.57;36.02;99713.56;10437502;28;20632;-81
2022/05/29 07:30:52;;;;;;;6.80;1.85;;;;;;;17.36;34.39;99700.22;10433131;28;20052;-81
2022/05/29 07:36:00;;;;;;;;;;;;;;;17.54;32.22;99690.59;10438990;28;20525;-82
2022/05/29 07:46:29;;;;;;;5.90;1.60;;;;;;;17.79;31.85;99697.09;10435656;28;20084;-81
2022/05/29 07:51:31;;;;;;;7.03;1.67;;;;;;;16.76;32.93;99695.97;10433391;28;20532;-80
2022/05/29 07:56:33;;;;;;;6.20;1.60;;;;;;;18.62;30.96;99687.31;10437394;28;20048;-81
2022/05/29 08:01:34;;;;;;;6.60;1.73;;;;;;;19.45;28.57;99681.66;10435870;28;20088;-81
2022/05/29 08:06:37;;;;;;;5.28;1.50;;;;;;;20.02;27.77;99688.22;10434440;28;20053;-81
2022/05/29 08:11:40;;;;;;;5.65;1.70;;;;;;;20.18;27.46;99679.50;10434471;28;20639;-81
2022/05/29 08:16:42;;;;;;;4.03;1.55;;;;;;;18.14;29.35;99696.41;10434910;28;20081;-82
2022/05/29 08:21:44;;;;;;;7.65;1.60;;;;;;;18.72;29.11;99691.69;10434943;28;20111;-83
2022/05/29 08:32:48;;;;;;;5.80;1.92;;;;;;;19.58;27.60;99678.63;10435396;28;20052;-84
2022/05/29 08:37:56;;;;;;;4.90;1.60;;;;;;;21.05;26.12;99678.13;10435397;28;20084;-83
2022/05/29 08:42:58;;;;;;;6.55;1.42;;;;;;;21.40;25.14;99673.53;10433129;28;20048;-83
2022/05/29 08:48:03;;;;;;;7.03;1.80;;;;;;;19.90;26.52;99683.31;10426850;28;20061;-84
2022/05/29 08:53:15;;;;;;;5.50;1.73;;;;;;;18.51;27.84;99689.28;10434074;28;20044;-82
2022/05/29 08:58:28;;;;;;;5.43;1.90;;;;;;;17.31;29.96;99690.97;10428891;28;20556;-84
2022/05/29 09:03:46;;;;;;;5.68;1.60;;;;;;;17.04;31.02;99689.03;10432007;28;20055;-84
2022/05/29 09:09:01;;;;;;;5.95;1.48;;;;;;;16.96;30.33;99680.97;10433093;28;20092;-84
2022/05/29 09:14:11;;;;;;;5.60;1.92;;;;;;;18.10;29.17;99669.41;10425888;28;20663;-83
2022/05/29 09:19:42;;;;;;;5.03;1.77;;;;;;;18.17;29.66;99669.66;10433523;28;20132;-84
2022/05/29 09:25:06;;;;;;;6.25;1.42;;;;;;;17.34;30.56;99666.97;10428411;28;20662;-83
2022/05/29 09:30:08;;;;;;;5.53;1.60;;;;;;;16.81;31.73;99669.97;10425330;28;20138;-84
2022/05/29 09:35:13;;;;;;;5.90;1.60;;;;;;;18.15;30.42;99655.72;10423968;28;20103;-84
2022/05/29 09:40:23;;;;;;;4.70;1.55;;;;;;;19.24;28.85;99645.84;10422114;28;20136;-84
2022/05/29 09:45:28;;;;;;;5.15;1.80;;;;;;;18.44;29.61;99648.50;10436867;28;20142;-84
2022/05/29 09:50:54;;;;;;;4.57;1.40;;;;;;;17.96;30.62;99646.06;10436184;28;20052;-84
2022/05/29 09:56:01;;;;;;;6.38;1.70;;;;;;;17.75;30.63;99637.50;10435709;28;20049;-84
2022/05/29 10:01:05;;;;;;;7.38;1.67;;;;;;;17.32;30.66;99650.38;10440452;28;20076;-84
2022/05/29 10:06:17;;;;;;;3.35;1.50;;;;;;;17.34;31.57;99637.88;10453842;28;20110;-83
2022/05/29 10:11:27;;;;;;;4.35;1.67;;;;;;;18.44;30.09;99628.13;10438640;28;20134;-83
2022/05/29 10:16:33;;;;;;;6.07;1.92;;;;;;;18.96;29.04;99629.19;10440147;28;20114;-83
2022/05/29 10:21:45;;;;;;;4.30;1.40;;;;;;;18.41;30.00;99620.50;10440816;28;20136;-83
2022/05/29 10:26:53;;;;;;;4.00;1.60;;;;;;;18.12;30.18;99619.78;10441020;28;20463;-83
2022/05/29 10:31:56;;;;;;;4.05;1.60;;;;;;;17.69;29.67;99612.44;10435556;28;20075;-83
2022/05/29 10:36:58;;;;;;;4.93;1.58;;;;;;;17.60;29.96;99608.03;10438171;28;20528;-82
2022/05/29 10:42:00;;;;;;;4.82;1.70;;;;;;;17.42;29.46;99612.41;10437342;28;20049;-83
2022/05/29 10:47:22;;;;;;;5.05;2.10;;;;;;;18.15;30.38;99597.50;10438307;28;20060;-81
2022/05/29 10:53:02;;;;;;;5.15;2.17;;;;;;;17.20;32.66;99607.38;10437132;28;20584;-79
2022/05/29 10:58:43;;;;;;;4.55;2.00;;;;;;;16.95;33.15;99597.41;10436566;28;20086;-80
2022/05/29 11:04:07;;;;;;;6.35;2.17;;;;;;;17.37;32.71;99596.13;10406939;28;20478;-80
2022/05/29 11:09:41;;;;;;;6.88;2.50;;;;;;;17.35;32.94;99590.16;10436800;28;20502;-81
2022/05/29 11:15:28;;;;;;;6.07;2.20;;;;;;;17.42;31.34;99570.09;10431715;28;20053;-81
2022/05/29 11:20:35;;;;;;;4.95;1.92;;;;;;;17.81;31.19;99561.03;10432435;28;20084;-80
2022/05/29 11:26:00;;;;;;;5.85;2.00;;;;;;;17.42;30.94;99572.75;10453913;28;20053;-81
2022/05/29 11:31:32;;;;;;;5.60;2.30;;;;;;;17.41;31.33;99565.78;10412826;28;20076;-81
2022/05/29 11:36:45;;;;;;;6.10;2.22;;;;;;;17.95;30.92;99556.25;10437251;28;20096;-81
2022/05/29 11:42:07;;;;;;;6.50;2.20;;;;;;;18.22;31.29;99545.69;10434522;28;20053;-81
2022/05/29 11:53:03;;;;;;;4.93;2.00;;;;;;;18.52;29.12;99542.69;10426407;28;20052;-82
2022/05/29 11:58:11;;;;;;;4.65;2.22;;;;;;;18.72;29.41;99536.22;10423308;28;20441;-81
2022/05/29 12:03:51;;;;;;;5.38;2.10;;;;;;;18.29;30.13;99529.03;10432403;28;20256;-81
2022/05/29 12:08:53;;;;;;;3.85;2.05;;;;;;;18.17;29.62;99522.28;10426940;28;20529;-80
2022/05/29 12:14:04;;;;;;;3.95;1.98;;;;;;;18.41;29.75;99513.75;10426375;28;20084;-81
2022/05/29 12:19:16;;;;;;;3.20;1.75;;;;;;;18.81;28.24;99511.44;10426690;28;20102;-80
2022/05/29 12:24:23;;;;;;;2.80;1.70;;;;;;;18.37;29.06;99507.09;10429844;28;20164;-80
2022/05/29 12:29:36;;;;;;;3.92;1.60;;;;;;;18.11;30.03;99516.72;10427714;28;20060;-80
2022/05/29 12:34:47;;;;;;;3.13;1.60;;;;;;;18.67;30.14;99506.69;10425324;28;20502;-80
2022/05/29 12:40:10;;;;;;;3.60;1.58;;;;;;;19.35;29.84;99497.94;10428017;28;20096;-80
2022/05/29 12:45:14;;;;;;;3.97;1.65;;;;;;;19.52;28.50;99482.09;10423273;28;20096;-79
2022/05/29 12:50:48;;;;;;;2.83;1.30;;;;;;;20.00;28.44;99479.66;10426237;28;20048;-80
2022/05/29 12:56:08;;;;;;;2.70;1.52;;;;;;;20.41;27.36;99473.41;10438266;28;20048;-81
2022/05/29 13:01:25;;;;;;;1.90;1.10;;;;;;;19.40;26.75;99473.59;10423823;28;20055;-81
2022/05/29 13:07:06;;;;;;;1.98;1.15;;;;;;;19.00;28.36;99476.81;10418531;28;20052;-81
2022/05/29 13:12:27;;;;;;;4.13;1.20;;;;;;;18.79;29.03;99478.16;10428192;28;20053;-79
2022/05/29 13:17:33;;;;;;;2.92;1.35;;;;;;;17.82;31.94;99475.41;10441804;28;20132;-80
2022/05/29 13:22:54;;;;;;;3.13;1.52;;;;;;;17.58;33.27;99487.53;10422212;28;20821;-80
2022/05/29 13:27:57;;;;;;;3.15;1.50;;;;;;;17.35;33.16;99484.41;10424995;28;20395;-80
2022/05/29 13:33:24;;;;;;;3.25;1.65;;;;;;;17.26;34.03;99485.25;10431439;28;20049;-81
2022/05/29 13:38:44;;;;;;;2.50;1.45;;;;;;;16.96;33.92;99483.66;10433158;28;20049;-81
2022/05/29 13:43:46;;;;;;;4.68;1.40;;;;;;;16.81;34.05;99481.63;10431469;28;20147;-80
2022/05/29 13:49:00;;;;;;;2.95;1.30;;;;;;;16.99;33.22;99479.91;10433692;28;20077;-80
2022/05/29 13:54:10;;;;;;;3.28;1.40;;;;;;;17.20;33.12;99477.88;10430495;28;20421;-81
2022/05/29 14:04:45;;;;;;;4.00;1.50;;;;;;;16.90;34.40;99480.75;10433599;28;20078;-80
2022/05/29 14:09:59;;;;;;;3.42;1.55;;;;;;;17.00;34.53;99481.56;10435243;28;20555;-80
2022/05/29 14:15:32;;;;;;;2.92;1.60;;;;;;;17.47;34.53;99475.31;10429607;28;20049;-80
2022/05/29 14:20:47;;;;;;;2.30;1.48;;;;;;;18.08;34.21;99475.50;10428224;28;20053;-81
2022/05/29 14:25:59;;;;;;;3.58;1.45;;;;;;;18.32;32.88;99467.03;10431409;28;20056;-82
2022/05/29 14:31:39;;;;;;;3.47;1.60;;;;;;;18.49;32.69;99463.50;10431280;28;20053;-81
2022/05/29 14:37:12;;;;;;;4.00;1.63;;;;;;;19.01;31.56;99459.09;10358523;28;20139;-81
2022/05/29 14:42:28;;;;;;;3.70;1.40;;;;;;;19.51;30.17;99454.75;10430276;28;20096;-81
2022/05/29 14:47:49;;;;;;;2.65;1.48;;;;;;;19.45;31.01;99458.03;10429247;28;20111;-81
2022/05/29 14:52:54;;;;;;;3.70;1.60;;;;;;;18.89;32.51;99473.59;10426518;28;20136;-81
2022/05/29 14:57:59;;;;;;;3.30;1.60;;;;;;;18.65;33.50;99459.19;10430916;28;20886;-82
2022/05/29 15:03:11;;;;;;;4.18;2.15;;;;;;;17.99;34.62;99481.72;10428019;28;20056;-82
2022/05/29 15:13:58;;;;;;;4.57;2.10;;;;;;;17.02;36.21;99484.91;10428818;28;20089;-82
2022/05/29 15:19:17;;;;;;;4.55;2.13;;;;;;;16.93;36.36;99486.63;10427942;28;20114;-81
2022/05/29 15:24:25;;;;;;;4.75;1.95;;;;;;;16.79;36.41;99488.88;10428488;28;20130;-82
2022/05/29 15:29:30;;;;;;;3.58;2.10;;;;;;;16.66;36.25;99488.31;10427976;28;20128;-82
2022/05/29 15:35:14;;;;;;;4.90;2.10;;;;;;;16.62;37.25;99492.19;10426771;28;20502;-82
2022/05/29 15:40:52;;;;;;;4.15;2.17;;;;;;;17.01;37.31;99483.25;10259154;28;20051;-82
2022/05/29 15:46:16;;;;;;;3.40;2.03;;;;;;;17.10;37.32;99479.72;10401325;28;20370;-81
2022/05/29 15:51:51;;;;;;;4.45;2.45;;;;;;;17.08;36.79;99476.41;10428577;28;20142;-80
2022/05/29 15:57:07;;;;;;;4.28;2.08;;;;;;;17.21;37.01;99471.66;10386934;28;20080;-80
2022/05/29 16:02:14;;;;;;;4.55;1.70;;;;;;;17.31;34.87;99469.78;10418437;28;20056;-80
2022/05/29 16:07:32;;;;;;;3.05;1.60;;;;;;;17.37;34.77;99469.25;10418999;28;20063;-79
2022/05/29 16:13:03;;;;;;;3.38;1.75;;;;;;;17.37;35.10;99465.75;10418371;28;20080;-80
2022/05/29 16:18:40;;;;;;;2.88;1.67;;;;;;;17.42;35.29;99461.72;10417077;28;20122;-79
2022/05/29 16:24:09;;;;;;;3.72;1.80;;;;;;;17.22;36.14;99467.19;10418930;28;20130;-79
2022/05/29 16:29:22;;;;;;;3.22;1.73;;;;;;;16.48;37.44;99461.78;10408915;28;20099;-79
2022/05/29 16:34:40;;;;;;;2.17;1.60;;;;;;;16.35;36.44;99466.47;10413488;28;20067;-79
2022/05/29 16:50:30;;;;;;;1.60;1.10;;;;;;;15.64;38.11;99480.81;10411561;28;20270;-81
2022/05/29 16:55:39;;;;;;;1.73;1.02;;;;;;;16.51;37.35;99458.84;10426097;28;20486;-81
2022/05/29 17:00:54;;;;;;;1.75;1.08;;;;;;;16.64;36.90;99463.84;10429456;28;20457;-80
2022/05/29 17:05:59;;;;;;;1.75;1.20;;;;;;;16.82;36.50;99467.44;10433641;28;20055;-81
2022/05/29 17:11:04;;;;;;;1.73;1.20;;;;;;;16.70;36.73;99458.84;10426339;28;20094;-81
2022/05/29 17:16:09;;;;;;;1.45;1.02;;;;;;;16.19;37.19;99472.31;10426994;28;20142;-80
2022/05/29 17:21:19;;;;;;;2.40;1.10;;;;;;;15.81;38.05;99474.91;10433143;28;20106;-80
2022/05/29 17:26:24;;;;;;;;;;;;;;;15.13;39.14;99474.75;10425163;28;20352;-74
2022/05/29 17:31:50;;;;;;;1.10;1.00;;;;;;;15.07;39.25;99472.66;10418564;28;20013;-74
2022/05/29 17:37:12;;;;;;;0.95;0.85;;;;;;;14.97;40.21;99479.66;10439166;28;20053;-73
2022/05/29 17:42:14;;;;;;;1.10;1.00;;;;;;;14.87;39.66;99484.03;10424119;28;20052;-73
2022/05/29 17:47:55;;;;;;;1.38;1.00;;;;;;;14.87;40.42;99481.41;10421051;28;20548;-73
2022/05/29 17:52:59;;;;;;;2.25;1.10;;;;;;;14.86;40.09;99490.28;10422763;28;20124;-73
2022/05/29 17:58:04;;;;;;;1.83;1.30;;;;;;;15.01;40.33;99484.56;10417596;28;20052;-73
2022/05/29 18:03:11;;;;;;;2.15;1.23;;;;;;;14.94;40.35;99487.84;10423355;28;20154;-73
2022/05/29 18:08:14;;;;;;;1.42;1.10;;;;;;;14.93;41.07;99478.25;10423554;28;20045;-74
2022/05/29 18:13:15;;;;;;;2.10;1.40;;;;;;;15.02;41.16;99490.66;10421577;28;20134;-73
2022/05/29 18:18:18;;;;;;;1.48;1.00;;;;;;;14.95;40.61;99489.50;10412080;28;20128;-74
2022/05/29 18:23:20;;;;;;;1.25;1.08;;;;;;;14.81;40.58;99476.66;10415105;28;20164;-75
2022/05/29 18:28:22;;;;;;;2.40;1.20;;;;;;;14.75;41.00;99485.91;10412294;28;20136;-74
2022/05/29 18:33:24;;;;;;;1.95;1.10;;;;;;;14.75;41.37;99479.81;10417155;28;20278;-74
2022/05/29 18:38:26;;;;;;;1.40;1.10;;;;;;;14.56;41.81;99488.41;10415034;28;20103;-74
2022/05/29 18:43:28;;;;;;;3.83;1.33;;;;;;;14.40;42.15;99486.19;10414672;28;20083;-74
2022/05/29 18:48:30;;;;;;;1.20;1.10;;;;;;;14.11;42.39;99489.50;10412736;28;20120;-74
2022/05/29 18:53:32;;;;;;;1.77;1.20;;;;;;;13.74;43.55;99494.25;10430022;28;20158;-74
2022/05/29 18:58:35;;;;;;;2.38;1.20;;;;;;;13.55;43.57;99494.06;10425215;28;20605;-74
2022/05/29 19:03:37;;;;;;;4.20;1.40;;;;;;;13.31;44.44;99498.56;10431182;28;20169;-75
2022/05/29 19:08:40;;;;;;;2.33;1.40;;;;;;;13.25;44.45;99504.31;10430471;28;20388;-74
2022/05/29 19:13:45;;;;;;;2.85;1.48;;;;;;;13.09;45.12;99501.19;10430659;28;20498;-73
2022/05/29 19:18:47;;;;;;;2.88;1.50;;;;;;;12.88;44.91;99499.22;10430605;28;20426;-74
2022/05/29 19:23:50;;;;;;;3.38;1.52;;;;;;;12.88;45.55;99496.59;10431591;28;20048;-74
2022/05/29 19:28:52;;;;;;;3.95;1.70;;;;;;;12.82;45.52;99504.13;10427203;28;20140;-76
2022/05/29 19:33:54;;;;;;;3.70;1.60;;;;;;;12.71;46.00;99512.81;10430955;28;20114;-76
2022/05/29 19:38:57;;;;;;;3.80;1.70;;;;;;;12.63;46.12;99509.91;10428554;28;20073;-76
2022/05/29 19:44:00;;;;;;;4.38;1.77;;;;;;;12.59;46.59;99508.47;10427290;28;20777;-76
2022/05/29 19:49:03;;;;;;;3.90;1.83;;;;;;;12.53;46.61;99514.19;10431328;28;20052;-76
2022/05/29 19:54:05;;;;;;;2.85;1.60;;;;;;;12.50;46.43;99510.91;10432328;28;20154;-76
2022/05/29 19:59:08;;;;;;;3.75;1.77;;;;;;;12.40;46.92;99515.19;10425258;28;20486;-76
2022/05/29 20:04:10;;;;;;;2.90;1.50;;;;;;;12.41;47.14;99512.47;10426182;28;20160;-76
2022/05/29 20:09:15;;;;;;;4.75;1.60;;;;;;;12.37;47.54;99510.16;10423782;28;20044;-75
2022/05/29 20:14:18;;;;;;;4.07;1.70;;;;;;;12.10;47.79;99510.38;10425991;28;20061;-75
2022/05/29 20:19:20;;;;;;;3.13;1.60;;;;;;;11.92;48.35;99523.03;10422788;28;20632;-75
2022/05/29 20:24:22;;;;;;;2.45;1.67;;;;;;;11.77;48.62;99508.38;10429531;28;20057;-76
2022/05/29 20:29:23;;;;;;;3.90;1.80;;;;;;;11.48;48.87;99500.94;10427901;28;20059;-76
2022/05/29 20:34:25;;;;;;;4.47;2.28;;;;;;;11.18;49.91;99511.72;10430805;28;20072;-76
2022/05/29 20:39:27;;;;;;;3.95;2.05;;;;;;;11.11;50.35;99513.91;10426731;28;20080;-76
2022/05/29 20:44:29;;;;;;;3.47;1.90;;;;;;;11.06;50.58;99518.66;10429984;28;20130;-76
2022/05/29 20:49:33;;;;;;;4.50;2.10;;;;;;;11.03;50.82;99520.63;10430429;28;20063;-76
2022/05/29 20:54:35;;;;;;;5.10;2.10;;;;;;;11.01;50.84;99528.53;10431747;28;20061;-76
2022/05/29 20:59:38;;;;;;;3.47;2.38;;;;;;;10.82;51.41;99538.59;10426664;28;20139;-76
2022/05/29 21:04:39;;;;;;;2.90;1.90;;;;;;;10.66;52.12;99527.47;10429512;28;20099;-76
2022/05/29 21:09:42;;;;;;;3.92;2.20;;;;;;;10.71;52.17;99529.75;10427979;28;20045;-76
2022/05/29 21:14:44;;;;;;;4.43;2.75;;;;;;;10.69;52.34;99532.50;10427704;28;20478;-76
2022/05/29 21:19:46;;;;;;;3.65;2.10;;;;;;;10.62;52.88;99533.00;10429802;28;20045;-76
2022/05/29 21:24:48;;;;;;;5.25;2.40;;;;;;;10.57;53.04;99532.47;10428320;28;20136;-76
2022/05/29 21:29:50;;;;;;;4.90;2.20;;;;;;;10.56;53.12;99523.78;10427255;28;20068;-76
2022/05/29 21:34:51;;;;;;;4.95;2.10;;;;;;;10.51;53.24;99533.72;10429588;28;20460;-76
2022/05/29 21:39:55;;;;;;;2.83;1.95;;;;;;;10.42;53.50;99529.91;10427759;28;20102;-76
2022/05/29 21:45:22;;;;;;;3.78;2.40;;;;;;;10.31;54.38;99521.09;10428673;28;20087;-77
2022/05/29 21:50:24;;;;;;;3.72;1.80;;;;;;;10.29;54.07;99526.44;10426686;28;20573;-76
2022/05/29 21:55:26;;;;;;;3.67;1.98;;;;;;;10.23;54.24;99520.75;10436344;28;20048;-76
2022/05/29 22:00:35;;;;;;;4.65;2.80;;;;;;;10.19;54.37;99524.50;10438810;28;20646;-76
2022/05/29 22:05:37;;;;;;;4.18;2.30;;;;;;;10.16;54.60;99522.94;10437427;28;20049;-75
2022/05/29 22:10:44;;;;;;;4.72;2.53;;;;;;;10.19;54.93;99517.53;10434307;28;20619;-75
2022/05/29 22:15:45;;;;;;;4.57;2.50;;;;;;;10.17;54.79;99518.53;10437329;28;20824;-76
2022/05/29 22:20:48;;;;;;;4.45;2.47;;;;;;;10.10;55.03;99514.63;10432790;28;20080;-76
2022/05/29 22:25:49;;;;;;;6.35;2.42;;;;;;;10.06;55.10;99510.53;10434645;28;20084;-76
2022/05/29 22:30:57;;;;;;;4.35;2.30;;;;;;;10.01;55.25;99513.44;10432584;28;20138;-76
2022/05/29 22:36:04;;;;;;;5.70;2.47;;;;;;;9.94;55.77;99521.78;10429664;28;20084;-76
2022/05/29 22:41:07;;;;;;;4.15;2.50;;;;;;;9.90;55.61;99513.31;10432213;28;20147;-76
2022/05/29 22:46:10;;;;;;;4.97;2.60;;;;;;;9.96;55.42;99510.31;10432824;28;20600;-76
2022/05/29 22:51:19;;;;;;;4.68;2.90;;;;;;;9.99;56.09;99512.72;10432524;28;20056;-75
2022/05/29 22:56:21;;;;;;;5.68;3.08;;;;;;;9.94;55.61;99524.38;10429470;28;20080;-76
2022/05/29 23:01:27;;;;;;;6.50;3.45;;;;;;;9.82;56.23;99512.97;10424809;28;20064;-75
2022/05/29 23:06:29;;;;;;;5.90;3.30;;;;;;;9.89;56.11;99516.03;10430209;28;20056;-76
2022/05/29 23:11:40;;;;;;;5.95;3.00;;;;;;;9.86;56.41;99508.38;10423986;28;20540;-76
2022/05/29 23:16:41;;;;;;;4.60;2.75;;;;;;;9.84;56.18;99510.25;10426054;28;20444;-76
2022/05/29 23:21:49;;;;;;;5.35;3.00;;;;;;;9.80;56.30;99498.31;10424817;28;20057;-76
2022/05/29 23:26:51;;;;;;;5.10;2.88;;;;;;;9.53;56.91;99500.84;10425458;28;20138;-76
2022/05/29 23:31:52;;;;;;;6.15;3.10;;;;;;;9.44;57.00;99499.63;10423480;28;20057;-76
2022/05/29 23:36:57;;;;;;;6.60;3.10;;;;;;;9.24;57.47;99500.03;10425065;28;20396;-76
2022/05/29 23:47:19;;;;;;;5.10;3.00;;;;;;;9.12;57.41;99500.78;10426743;28;20048;-76
2022/05/29 23:52:21;;;;;;;7.00;3.80;;;;;;;9.18;57.51;99489.97;10428009;28;20092;-76
2022/05/29 23:57:23;;;;;;;8.02;3.75;;;;;;;9.22;57.37;99498.47;10430972;28;20135;-76
